Narsarsuaq, Greenland
Current Conditions -  °F | °C
As of 5:50 AM on Friday 19 Dec 2014 (Local Time) from BGBW Reporting Station
Broken Clouds Broken Clouds  
Wind Chill: 14°   Ceiling: 2900
Heat Index: 14°   Visibility: 6mi
Dew Point:   Wind: 2mph
Humidity: 79%   Direction: 220°SW
Pressure: 29.59"   Gusts: NA
Location:  61.17°N, 45.43°W
Report Text: BGBW 190750Z 22002KT 9999 BKN029 BKN072 M10/M13 Q1002
Loading
Personal Weather Stations






























Interactive Weather Map New forecast layout! Learn more

10-Day Weather Forecast

Advertisements
Track Severe Weather on mobile